Stuart, IA (50250)

9:09 PM CDT on August 30, 2016 (GMT -0500)
Stuart Iowa | | Change Station

Elev 1207 ft 41.50 °N, 94.32 °W | Updated 2 minutes ago

Clear
Clear
73.0 °F
Feels Like 70 °F
N
0.0
Wind Variable Wind from NNE

Today
High -- | Low -- °F
--% Chance of Precip.
Yesterday
High -- | Low -- °F
Precip. -- in
Pressure 30.15 in
Visibility 10.0 miles
Clouds Clear
Heat Index 70 °F
Dew Point 70 °F
Humidity 92%
Rainfall 0.02 in
Snow Depth Not available.
6:41 AM 7:52 PM
Waning Crescent, 2% visible
METAR KPRO 310155Z AUTO 33004KT 10SM CLR 22/22 A3015 RMK AO2 T02210218
Pressure 30.15 in
Visibility 10.0 miles
Clouds Clear
Heat Index 70 °F
Dew Point 70 °F
Humidity 92%
Rainfall 0.02 in
Snow Depth Not available.
6:41 AM 7:52 PM
Waning Crescent, 2% visible
METAR KPRO 310155Z AUTO 33004KT 10SM CLR 22/22 A3015 RMK AO2 T02210218

10-Day Weather Forecast

Almanac

Astronomy

Aug. 30, 2016 Rise Set
Actual Time
Civil Twilight
Nautical Twilight
Astronomical Twilight
Moon
Length of Visible Light
Length of Day
Tomorrow will be .
, % of the Moon is Illuminated

Today's Extremes

State Highs State Lows

Community

WunderPhotos

Upload Photos

1,935,985 photos uploaded!

WunderBlog® & News

Nearby

Air Quality

  Air Quality AQ Index Pollutant
Not available.

Snow Depth

Station Depth Elevation

Earthquake Activity

City Distance Mag. Time & Date
Minimum magnitude displayed is 2.5.

Coastal Water Temperatures

Place Temperature

Stations

Nearby Weather Stations

Station Location Temp. Windchill Dew Point Humidity Wind Precip. Elev Updated Type
                   

Watches & Warnings

There are currently no watches in effect.